createdAt,value
2019-05-01T00:01:32.808Z,35.68
2019-05-01T00:04:10.449Z,38.45
2019-05-01T00:06:39.138Z,39.27
2019-05-01T00:09:08.695Z,41.65
2019-05-01T00:11:35.496Z,40.85
2019-05-01T00:14:02.166Z,36.38
2019-05-01T00:16:28.611Z,34.08
2019-05-01T00:18:55.100Z,37.13
2019-05-01T00:21:21.558Z,36.50
2019-05-01T00:23:48.035Z,37.10
2019-05-01T00:26:14.579Z,41.58
2019-05-01T00:28:40.957Z,42.08
2019-05-01T00:31:07.774Z,38.70
2019-05-01T00:33:34.244Z,39.95
2019-05-01T00:36:00.703Z,40.55
2019-05-01T00:38:27.074Z,46.00
2019-05-01T00:40:53.707Z,40.35
2019-05-01T00:43:20.176Z,40.05
2019-05-01T00:45:46.531Z,40.28
2019-05-01T00:48:13.029Z,38.23
2019-05-01T00:50:59.339Z,44.50
2019-05-01T00:53:25.912Z,41.30
2019-05-01T00:56:11.538Z,38.75
2019-05-01T00:58:42.631Z,40.90
2019-05-01T01:01:14.027Z,43.17
2019-05-01T01:03:41.019Z,42.48
2019-05-01T01:06:07.572Z,37.63
2019-05-01T01:08:34.658Z,37.65
2019-05-01T01:11:01.430Z,46.85
2019-05-01T01:13:28.011Z,45.63
2019-05-01T01:15:54.777Z,50.30
2019-05-01T01:18:21.223Z,43.42
2019-05-01T01:20:47.591Z,41.23
2019-05-01T01:23:14.448Z,46.90
2019-05-01T01:25:41.230Z,40.85
2019-05-01T01:28:08.284Z,40.25
2019-05-01T01:30:35.054Z,43.50
2019-05-01T01:33:01.703Z,45.63
2019-05-01T01:35:28.075Z,46.30
2019-05-01T01:37:54.537Z,46.40
2019-05-01T01:40:21.207Z,45.28
2019-05-01T01:42:49.676Z,43.78
2019-05-01T01:45:27.567Z,44.05
2019-05-01T01:48:10.471Z,43.42
2019-05-01T01:50:39.895Z,43.48
2019-05-01T01:53:07.262Z,50.40
2019-05-01T01:55:34.338Z,45.75
2019-05-01T01:58:01.730Z,46.68
2019-05-01T02:00:30.211Z,43.92
2019-05-01T02:02:58.749Z,42.65
2019-05-01T02:05:27.426Z,43.73
2019-05-01T02:07:54.066Z,46.63
2019-05-01T02:10:21.080Z,44.75
2019-05-01T02:12:48.603Z,49.77
2019-05-01T02:15:15.302Z,46.55
2019-05-01T02:17:42.043Z,46.33
2019-05-01T02:20:08.620Z,50.50
2019-05-01T02:22:35.375Z,50.40
2019-05-01T02:25:02.647Z,51.68
2019-05-01T02:27:31.413Z,49.80
2019-05-01T02:30:00.593Z,55.10
2019-05-01T02:32:27.447Z,46.35
2019-05-01T02:34:55.518Z,50.78
2019-05-01T02:37:23.674Z,45.83
2019-05-01T02:39:50.443Z,50.12
2019-05-01T02:42:20.587Z,47.27
2019-05-01T02:44:50.141Z,50.08
2019-05-01T02:47:20.441Z,47.27
2019-05-01T02:49:53.843Z,47.75
2019-05-01T02:52:24.083Z,54.90
2019-05-01T02:54:52.760Z,50.05
2019-05-01T02:57:20.716Z,43.00
2019-05-01T02:59:50.298Z,44.98
2019-05-01T03:02:37.204Z,47.78
2019-05-01T03:05:05.973Z,44.80
2019-05-01T03:07:35.121Z,51.77
2019-05-01T03:10:03.502Z,50.30
2019-05-01T03:12:33.378Z,48.83
2019-05-01T03:15:02.274Z,51.15
2019-05-01T03:17:49.562Z,55.20
2019-05-01T03:20:21.122Z,43.52
2019-05-01T03:22:53.413Z,49.35
2019-05-01T03:25:21.036Z,54.53
2019-05-01T03:27:47.683Z,47.88
2019-05-01T03:30:14.516Z,49.90
2019-05-01T03:32:41.209Z,48.68
2019-05-01T03:35:07.998Z,49.85
2019-05-01T03:37:35.255Z,52.40
2019-05-01T03:40:03.134Z,53.78
2019-05-01T03:42:29.778Z,51.23
2019-05-01T03:44:56.752Z,51.18
2019-05-01T03:47:23.492Z,53.00
2019-05-01T03:49:50.760Z,45.92
2019-05-01T03:52:17.993Z,49.98
2019-05-01T03:54:44.654Z,48.23
2019-05-01T03:57:12.800Z,54.05
2019-05-01T03:59:39.877Z,49.88
2019-05-01T04:02:32.259Z,51.80
2019-05-01T04:04:46.224Z,52.08
2019-05-01T04:07:12.989Z,44.98
2019-05-01T04:09:40.150Z,51.02
2019-05-01T04:12:07.517Z,49.42
2019-05-01T04:14:34.296Z,49.85
2019-05-01T04:17:08.486Z,49.85
2019-05-01T04:19:35.412Z,49.73
2019-05-01T04:22:12.358Z,46.60
2019-05-01T04:24:39.303Z,56.08
2019-05-01T04:27:08.054Z,53.75
2019-05-01T04:32:23.258Z,53.33
2019-05-01T04:34:52.256Z,56.48
2019-05-01T04:37:20.962Z,61.00
2019-05-01T04:39:47.626Z,57.58
2019-05-01T04:42:14.265Z,67.62
2019-05-01T04:44:40.753Z,66.30
2019-05-01T04:47:07.488Z,75.45
2019-05-01T04:49:53.942Z,79.90
2019-05-01T04:52:20.498Z,69.47
2019-05-01T04:54:47.556Z,76.17
2019-05-01T04:57:14.463Z,75.20
2019-05-01T04:59:41.423Z,82.90
2019-05-01T05:02:09.993Z,93.67
2019-05-01T05:04:37.750Z,85.95
2019-05-01T05:07:04.698Z,80.12
2019-05-01T05:09:45.348Z,80.07
2019-05-01T05:12:14.803Z,93.70
2019-05-01T05:14:46.386Z,86.55
2019-05-01T05:17:17.443Z,88.42
2019-05-01T05:19:44.211Z,78.37
2019-05-01T05:22:11.083Z,83.58
2019-05-01T05:24:38.110Z,82.65
2019-05-01T05:27:05.559Z,91.10
2019-05-01T05:29:32.204Z,99.22
2019-05-01T05:32:01.082Z,93.42
2019-05-01T05:34:28.336Z,91.82
2019-05-01T05:36:59.212Z,82.88
2019-05-01T05:39:28.672Z,92.33
2019-05-01T05:41:56.451Z,95.50
2019-05-01T05:44:23.301Z,88.75
2019-05-01T05:46:50.435Z,95.90
2019-05-01T05:49:17.689Z,84.47
2019-05-01T05:51:51.719Z,86.22
2019-05-01T05:54:32.415Z,94.97
2019-05-01T05:57:02.170Z,96.15
2019-05-01T05:59:45.884Z,90.22
2019-05-01T06:02:18.503Z,89.72
2019-05-01T06:04:50.692Z,97.08
2019-05-01T06:07:22.859Z,113.95
2019-05-01T06:09:56.983Z,105.50
2019-05-01T06:12:37.195Z,91.50
2019-05-01T06:15:23.843Z,100.07
2019-05-01T06:17:59.223Z,87.37
2019-05-01T06:20:28.299Z,89.03
2019-05-01T06:23:06.496Z,86.97
2019-05-01T06:25:36.681Z,92.97
2019-05-01T06:28:03.626Z,89.95
2019-05-01T06:30:30.440Z,94.75
2019-05-01T06:32:56.988Z,98.05
2019-05-01T06:35:23.982Z,94.92
2019-05-01T06:38:01.995Z,90.90
2019-05-01T06:40:39.670Z,91.05
2019-05-01T06:43:11.201Z,94.90
2019-05-01T06:45:40.835Z,94.35
2019-05-01T06:48:14.110Z,82.20
2019-05-01T06:50:52.230Z,96.78
2019-05-01T06:53:19.064Z,89.80
2019-05-01T06:55:45.619Z,95.92
2019-05-01T06:58:14.860Z,86.60
2019-05-01T07:00:43.034Z,93.75
2019-05-01T07:03:11.548Z,92.05
2019-05-01T07:05:38.770Z,86.90
2019-05-01T07:08:05.448Z,96.95
2019-05-01T07:10:43.515Z,89.85
2019-05-01T07:13:05.148Z,88.62
2019-05-01T07:15:31.502Z,92.60
2019-05-01T07:17:58.371Z,96.35
2019-05-01T07:20:27.134Z,86.70
2019-05-01T07:22:54.202Z,98.05
2019-05-01T07:25:20.655Z,86.85
2019-05-01T07:27:47.107Z,92.65
2019-05-01T07:30:19.597Z,85.72
2019-05-01T07:33:06.131Z,99.87
2019-05-01T07:35:36.803Z,89.85
2019-05-01T07:38:02.214Z,86.45
2019-05-01T07:40:30.218Z,92.65
2019-05-01T07:43:01.690Z,90.17
2019-05-01T07:45:33.231Z,83.42
2019-05-01T07:48:01.075Z,87.33
2019-05-01T07:50:31.736Z,88.60
2019-05-01T07:52:58.698Z,79.50
2019-05-01T07:55:33.525Z,94.58
2019-05-01T07:57:59.977Z,91.17
2019-05-01T08:00:41.491Z,92.12
2019-05-01T08:03:07.175Z,85.38
2019-05-01T08:05:34.210Z,91.22
2019-05-01T08:08:02.929Z,79.80
2019-05-01T08:10:31.545Z,96.92
2019-05-01T08:13:00.430Z,83.85
2019-05-01T08:15:27.681Z,90.57
2019-05-01T08:17:56.601Z,83.15
2019-05-01T08:20:24.970Z,82.42
2019-05-01T08:22:51.640Z,85.15
2019-05-01T08:25:18.217Z,75.42
2019-05-01T08:27:51.121Z,84.00
2019-05-01T08:30:36.653Z,78.52
2019-05-01T08:33:15.871Z,92.55
2019-05-01T08:35:42.720Z,77.37
2019-05-01T08:38:09.267Z,76.30
2019-05-01T08:40:37.325Z,83.10
2019-05-01T08:43:04.051Z,82.40
2019-05-01T08:45:40.641Z,81.30
2019-05-01T08:48:14.652Z,82.78
2019-05-01T08:50:41.341Z,75.22
2019-05-01T08:53:08.131Z,83.12
2019-05-01T08:55:34.971Z,87.30
2019-05-01T08:58:01.428Z,75.40
2019-05-01T09:00:31.049Z,86.17
2019-05-01T09:03:07.838Z,92.10
2019-05-01T09:05:28.763Z,92.27
2019-05-01T09:07:56.043Z,89.50
2019-05-01T09:10:23.238Z,98.25
2019-05-01T09:12:52.045Z,93.10
2019-05-01T09:15:18.340Z,98.82
2019-05-01T09:17:44.913Z,82.95
2019-05-01T09:20:12.474Z,95.83
2019-05-01T09:22:39.156Z,96.53
2019-05-01T09:25:07.019Z,85.28
2019-05-01T09:27:44.597Z,96.92
2019-05-01T09:30:31.500Z,95.57
2019-05-01T09:32:58.073Z,90.90
2019-05-01T09:35:24.723Z,99.65
2019-05-01T09:37:51.548Z,90.38
2019-05-01T09:40:18.310Z,104.67
2019-05-01T09:42:45.096Z,83.05
2019-05-01T09:45:33.888Z,99.60
2019-05-01T09:48:00.476Z,93.92
2019-05-01T09:50:30.394Z,106.03
2019-05-01T09:53:06.196Z,96.93
2019-05-01T09:55:50.073Z,93.77
2019-05-01T09:58:16.840Z,95.50
2019-05-01T10:00:43.495Z,105.15
2019-05-01T10:03:13.150Z,107.63
2019-05-01T10:05:42.928Z,89.77
2019-05-01T10:08:07.577Z,97.77
2019-05-01T10:10:36.859Z,96.82
2019-05-01T10:13:03.060Z,103.73
2019-05-01T10:15:29.678Z,100.07
2019-05-01T10:17:56.139Z,103.23
2019-05-01T10:20:22.751Z,105.03
2019-05-01T10:22:49.430Z,113.73
2019-05-01T10:25:16.001Z,115.03
2019-05-01T10:30:36.270Z,99.03
2019-05-01T10:33:14.719Z,90.50
2019-05-01T10:35:43.501Z,94.27
2019-05-01T10:38:10.806Z,93.43
2019-05-01T10:40:37.865Z,99.60
2019-05-01T10:43:04.508Z,94.10
2019-05-01T10:45:31.003Z,95.40
2019-05-01T10:47:57.443Z,105.10
2019-05-01T10:50:23.925Z,104.50
2019-05-01T10:52:50.488Z,91.97
2019-05-01T10:55:17.164Z,107.07
2019-05-01T10:57:43.740Z,102.03
2019-05-01T11:00:11.280Z,104.93
2019-05-01T11:02:37.832Z,107.27
2019-05-01T11:05:04.485Z,97.03
2019-05-01T11:07:31.091Z,83.70
2019-05-01T11:09:57.647Z,83.80
2019-05-01T11:12:24.136Z,94.87
2019-05-01T11:14:50.616Z,89.57
2019-05-01T11:17:17.188Z,87.47
2019-05-01T11:19:43.734Z,97.00
2019-05-01T11:22:10.513Z,86.67
2019-05-01T11:24:37.180Z,92.17
2019-05-01T11:27:03.861Z,90.63
2019-05-01T11:29:30.318Z,95.10
2019-05-01T11:31:59.009Z,108.27
2019-05-01T11:34:33.161Z,108.43
2019-05-01T11:37:18.505Z,99.73
2019-05-01T11:39:50.151Z,93.00
2019-05-01T11:42:18.164Z,93.93
2019-05-01T11:44:44.746Z,89.30
2019-05-01T11:47:11.332Z,80.43
2019-05-01T11:49:37.787Z,96.80
2019-05-01T11:52:04.484Z,93.30
2019-05-01T11:54:31.212Z,95.60
2019-05-01T11:56:57.679Z,91.20
2019-05-01T11:59:24.359Z,87.60
2019-05-01T12:01:51.131Z,88.67
2019-05-01T12:04:17.700Z,91.70
2019-05-01T12:06:44.382Z,88.50
2019-05-01T12:09:10.945Z,80.80
2019-05-01T12:11:39.331Z,92.20
2019-05-01T12:14:05.932Z,85.87
2019-05-01T12:16:51.064Z,98.80
2019-05-01T12:19:18.016Z,87.03
2019-05-01T12:21:44.823Z,93.23
2019-05-01T12:24:11.441Z,85.90
2019-05-01T12:26:37.881Z,95.20
2019-05-01T12:29:04.470Z,93.03
2019-05-01T12:31:31.272Z,96.03
2019-05-01T12:33:57.891Z,94.43
2019-05-01T12:36:35.702Z,93.07
2019-05-01T12:38:52.614Z,92.80
2019-05-01T12:44:19.199Z,93.53
2019-05-01T12:47:03.020Z,95.40
2019-05-01T12:49:29.491Z,86.13
2019-05-01T12:52:09.924Z,101.77
2019-05-01T12:54:34.399Z,98.77
2019-05-01T12:57:01.956Z,104.53
2019-05-01T12:59:28.435Z,91.33
2019-05-01T13:01:55.078Z,86.87
2019-05-01T13:04:21.871Z,95.07
2019-05-01T13:06:50.836Z,85.90
2019-05-01T13:09:17.506Z,95.93
2019-05-01T13:11:43.954Z,82.80
2019-05-01T13:14:10.570Z,90.53
2019-05-01T13:16:37.338Z,92.37
2019-05-01T13:19:03.893Z,86.23
2019-05-01T13:21:30.443Z,88.50
2019-05-01T13:23:56.810Z,92.03
2019-05-01T13:26:28.076Z,85.07
2019-05-01T13:29:02.599Z,75.03
2019-05-01T13:31:46.324Z,84.43
2019-05-01T13:34:12.866Z,80.23
2019-05-01T13:36:39.540Z,77.47
2019-05-01T13:39:09.207Z,73.63
2019-05-01T13:41:35.788Z,75.67
2019-05-01T13:44:02.731Z,78.37
2019-05-01T13:46:29.213Z,82.17
2019-05-01T13:48:55.667Z,79.87
2019-05-01T13:51:22.235Z,79.53
2019-05-01T13:53:48.775Z,82.57
2019-05-01T13:56:15.343Z,79.10
2019-05-01T13:58:41.795Z,72.10
2019-05-01T14:01:08.960Z,79.97
2019-05-01T14:03:35.507Z,67.27
2019-05-01T14:06:02.287Z,69.30
2019-05-01T14:08:28.644Z,67.60
2019-05-01T14:10:55.616Z,64.27
2019-05-01T14:13:22.187Z,74.07
2019-05-01T14:15:48.571Z,64.30
2019-05-01T14:18:15.024Z,61.57
2019-05-01T14:20:43.776Z,65.70
2019-05-01T14:23:12.223Z,63.83
2019-05-01T14:25:57.132Z,66.67
2019-05-01T14:28:23.593Z,69.17
2019-05-01T14:30:50.064Z,61.73
2019-05-01T14:33:16.536Z,61.03
2019-05-01T14:35:42.996Z,60.07
2019-05-01T14:38:09.462Z,60.60
2019-05-01T14:40:35.903Z,60.60
2019-05-01T14:43:02.485Z,57.53
2019-05-01T14:45:29.048Z,59.27
2019-05-01T14:47:55.524Z,57.83
2019-05-01T14:50:21.972Z,54.17
2019-05-01T14:52:48.455Z,55.80
2019-05-01T14:55:15.050Z,56.93
2019-05-01T14:57:41.476Z,51.30
2019-05-01T15:00:08.117Z,56.70
2019-05-01T15:02:34.588Z,55.57
2019-05-01T15:05:01.542Z,55.53
2019-05-01T15:07:28.015Z,54.00
2019-05-01T15:09:54.903Z,53.37
2019-05-01T15:12:21.475Z,56.57
2019-05-01T15:14:49.863Z,52.50
2019-05-01T15:17:18.331Z,54.03
2019-05-01T15:19:46.985Z,57.00
2019-05-01T15:22:13.540Z,53.37
2019-05-01T15:24:40.129Z,51.47
2019-05-01T15:27:06.788Z,53.20
2019-05-01T15:29:33.259Z,48.07
2019-05-01T15:31:59.816Z,49.03
2019-05-01T15:34:26.192Z,50.33
2019-05-01T15:36:52.942Z,50.43
2019-05-01T15:39:21.335Z,46.73
2019-05-01T15:42:04.967Z,51.13
2019-05-01T15:44:35.948Z,47.33
2019-05-01T15:47:03.217Z,50.70
2019-05-01T15:49:29.993Z,50.73
2019-05-01T15:51:56.440Z,50.13
2019-05-01T15:54:23.012Z,47.17
2019-05-01T15:56:49.581Z,45.43
2019-05-01T15:59:16.444Z,47.03
2019-05-01T16:01:43.096Z,44.13
2019-05-01T16:04:09.548Z,53.90
2019-05-01T16:06:36.319Z,52.40
2019-05-01T16:09:04.978Z,45.90
2019-05-01T16:11:49.899Z,47.80
2019-05-01T16:14:16.960Z,45.20
2019-05-01T16:16:43.636Z,46.97
2019-05-01T16:19:10.293Z,41.87
2019-05-01T16:21:37.183Z,47.03
2019-05-01T16:24:03.838Z,50.40
2019-05-01T16:26:30.303Z,49.73
2019-05-01T16:28:56.768Z,49.60
2019-05-01T16:31:23.340Z,45.60
2019-05-01T16:33:49.890Z,40.57
2019-05-01T16:36:16.384Z,42.53
2019-05-01T16:39:01.647Z,47.23
2019-05-01T16:41:30.136Z,48.17
2019-05-01T16:43:56.591Z,45.10
2019-05-01T16:46:23.076Z,46.67
2019-05-01T16:48:49.531Z,41.90
2019-05-01T16:51:16.403Z,42.80
2019-05-01T16:53:42.855Z,45.57
2019-05-01T16:56:09.320Z,47.03
2019-05-01T16:58:36.831Z,45.00
2019-05-01T17:01:12.579Z,45.33
2019-05-01T17:03:44.270Z,48.90
2019-05-01T17:06:15.631Z,46.10
2019-05-01T17:08:47.204Z,43.23
2019-05-01T17:11:14.024Z,41.23
2019-05-01T17:13:41.028Z,45.00
2019-05-01T17:16:07.780Z,45.77
2019-05-01T17:18:34.617Z,44.10
2019-05-01T17:21:01.103Z,47.20
2019-05-01T17:23:27.656Z,51.30
2019-05-01T17:25:54.228Z,48.03
2019-05-01T17:28:20.803Z,57.20
2019-05-01T17:30:49.371Z,47.00
2019-05-01T17:33:21.001Z,45.43
2019-05-01T17:35:44.608Z,49.60
2019-05-01T17:38:11.188Z,50.20
2019-05-01T17:40:37.940Z,49.03
2019-05-01T17:43:07.996Z,49.00
2019-05-01T17:45:34.818Z,48.83
2019-05-01T17:48:01.938Z,47.10
2019-05-01T17:50:28.407Z,51.93
2019-05-01T17:52:54.892Z,54.50
2019-05-01T17:55:21.537Z,47.77
2019-05-01T17:57:48.104Z,48.90
2019-05-01T18:00:34.010Z,52.40
2019-05-01T18:03:05.398Z,46.03
2019-05-01T18:05:50.381Z,50.20
2019-05-01T18:08:17.255Z,48.57
2019-05-01T18:10:43.932Z,49.40
2019-05-01T18:13:10.503Z,52.63
2019-05-01T18:15:37.164Z,46.47
2019-05-01T18:18:04.211Z,51.07
2019-05-01T18:20:30.756Z,57.53
2019-05-01T18:23:12.547Z,51.53
2019-05-01T18:25:44.299Z,49.57
2019-05-01T18:28:12.784Z,47.47
2019-05-01T18:30:41.351Z,52.90
2019-05-01T18:33:07.884Z,47.67
2019-05-01T18:35:34.844Z,52.30
2019-05-01T18:38:11.638Z,50.13
2019-05-01T18:40:42.120Z,49.00
2019-05-01T18:43:08.971Z,52.23
2019-05-01T18:45:47.568Z,54.10
2019-05-01T18:48:14.733Z,56.90
2019-05-01T18:50:41.316Z,55.60
2019-05-01T18:53:11.331Z,53.60
2019-05-01T18:55:36.147Z,56.43
2019-05-01T18:58:03.366Z,54.33
2019-05-01T19:00:29.952Z,57.00
2019-05-01T19:02:59.685Z,52.10
2019-05-01T19:05:24.996Z,51.57
2019-05-01T19:07:51.555Z,61.37
2019-05-01T19:10:18.035Z,59.90
2019-05-01T19:12:44.596Z,54.50
2019-05-01T19:15:11.371Z,49.63
2019-05-01T19:17:57.788Z,54.73
2019-05-01T19:20:24.489Z,50.97
2019-05-01T19:22:51.023Z,52.37
2019-05-01T19:25:18.003Z,52.80
2019-05-01T19:27:44.575Z,57.35
2019-05-01T19:30:15.053Z,60.00
2019-05-01T19:32:40.644Z,63.02
2019-05-01T19:35:07.532Z,56.63
2019-05-01T19:37:34.094Z,58.60
2019-05-01T19:40:00.785Z,56.23
2019-05-01T19:42:27.445Z,59.83
2019-05-01T19:44:56.295Z,53.90
2019-05-01T19:47:23.081Z,56.17
2019-05-01T19:49:49.717Z,59.87
2019-05-01T19:52:16.180Z,62.67
2019-05-01T19:54:42.696Z,58.23
2019-05-01T19:57:09.296Z,53.77
2019-05-01T19:59:35.789Z,56.85
2019-05-01T20:02:02.840Z,59.23
2019-05-01T20:04:29.639Z,64.40
2019-05-01T20:06:56.430Z,57.62
2019-05-01T20:09:23.626Z,60.75
2019-05-01T20:11:50.203Z,59.63
2019-05-01T20:14:16.767Z,64.25
2019-05-01T20:16:43.248Z,57.48
2019-05-01T20:19:10.181Z,62.05
2019-05-01T20:21:36.593Z,64.87
2019-05-01T20:24:04.488Z,60.60
2019-05-01T20:26:32.147Z,62.27
2019-05-01T20:29:00.432Z,60.48
2019-05-01T20:31:28.221Z,64.22
2019-05-01T20:33:55.566Z,62.55
2019-05-01T20:36:22.589Z,60.75
2019-05-01T20:38:49.141Z,62.53
2019-05-01T20:41:18.011Z,65.50
2019-05-01T20:43:45.396Z,57.45
2019-05-01T20:46:12.217Z,64.77
2019-05-01T20:48:38.899Z,66.92
2019-05-01T20:51:05.451Z,69.03
2019-05-01T20:53:32.043Z,56.33
2019-05-01T20:56:03.359Z,60.28
2019-05-01T20:58:29.843Z,58.23
2019-05-01T21:00:58.201Z,60.55
2019-05-01T21:03:24.782Z,71.05
2019-05-01T21:05:53.075Z,62.58
2019-05-01T21:08:34.403Z,70.55
2019-05-01T21:11:00.767Z,63.28
2019-05-01T21:13:27.259Z,63.52
2019-05-01T21:15:56.264Z,64.15
2019-05-01T21:18:25.945Z,53.90
2019-05-01T21:20:50.358Z,64.75
2019-05-01T21:23:16.846Z,55.78
2019-05-01T21:25:43.879Z,65.97
2019-05-01T21:28:10.479Z,58.85
2019-05-01T21:30:38.652Z,57.65
2019-05-01T21:33:10.020Z,55.12
2019-05-01T21:35:34.146Z,59.98
2019-05-01T21:38:00.780Z,65.60
2019-05-01T21:40:37.681Z,64.25
2019-05-01T21:42:55.880Z,72.25
2019-05-01T21:45:22.973Z,71.42
2019-05-01T21:47:49.541Z,67.85
2019-05-01T21:50:17.811Z,74.97
2019-05-01T21:52:44.591Z,74.00
2019-05-01T21:55:11.575Z,66.33
2019-05-01T21:57:40.673Z,66.47
2019-05-01T22:00:08.728Z,67.67
2019-05-01T22:02:35.388Z,66.28
2019-05-01T22:05:04.105Z,64.62
2019-05-01T22:07:31.348Z,70.32
2019-05-01T22:09:58.026Z,70.67
2019-05-01T22:12:24.599Z,64.62
2019-05-01T22:14:53.073Z,62.88
2019-05-01T22:17:27.380Z,63.65
2019-05-01T22:19:53.047Z,73.25
2019-05-01T22:22:21.528Z,67.92
2019-05-01T22:24:55.848Z,72.60
2019-05-01T22:27:36.307Z,69.45
2019-05-01T22:30:13.337Z,74.85
2019-05-01T22:32:41.699Z,71.53
2019-05-01T22:35:14.777Z,67.55
2019-05-01T22:37:41.377Z,71.42
2019-05-01T22:40:10.023Z,68.47
2019-05-01T22:42:36.614Z,68.42
2019-05-01T22:45:05.563Z,68.28
2019-05-01T22:47:32.236Z,81.12
2019-05-01T22:49:58.798Z,70.83
2019-05-01T22:52:25.284Z,77.72
2019-05-01T22:54:51.935Z,79.30
2019-05-01T22:57:20.206Z,71.28
2019-05-01T22:59:47.459Z,73.12
2019-05-01T23:02:28.487Z,72.90
2019-05-01T23:04:56.170Z,76.45
2019-05-01T23:07:22.862Z,70.87
2019-05-01T23:09:49.424Z,76.82
2019-05-01T23:12:15.899Z,77.53
2019-05-01T23:14:42.562Z,74.27
2019-05-01T23:17:11.326Z,80.65
2019-05-01T23:19:37.880Z,79.03
2019-05-01T23:22:05.660Z,78.80
2019-05-01T23:24:32.024Z,79.65
2019-05-01T23:26:58.600Z,75.97
2019-05-01T23:29:26.030Z,73.28
2019-05-01T23:31:52.699Z,77.70
2019-05-01T23:34:21.183Z,79.92
2019-05-01T23:36:47.711Z,79.22
2019-05-01T23:39:15.075Z,76.60
2019-05-01T23:41:45.751Z,80.53
2019-05-01T23:44:30.072Z,81.75
2019-05-01T23:46:56.544Z,73.42
2019-05-01T23:49:23.132Z,83.20
2019-05-01T23:51:49.968Z,79.97
2019-05-01T23:54:16.648Z,78.80
2019-05-01T23:56:43.208Z,77.22
2019-05-01T23:59:09.689Z,80.42
